createdAt,value
2022-12-20T00:04:05.880Z,13.75
2022-12-20T00:09:09.446Z,14.52
2022-12-20T00:14:10.940Z,13.73
2022-12-20T00:19:12.349Z,19.10
2022-12-20T00:24:13.780Z,12.70
2022-12-20T00:29:15.220Z,14.30
2022-12-20T00:34:16.633Z,13.52
2022-12-20T00:39:18.049Z,15.50
2022-12-20T00:44:19.471Z,13.32
2022-12-20T00:49:20.870Z,14.15
2022-12-20T00:54:22.323Z,16.13
2022-12-20T00:59:23.788Z,13.90
2022-12-20T01:04:25.178Z,15.80
2022-12-20T01:09:26.539Z,13.57
2022-12-20T01:14:27.911Z,15.20
2022-12-20T01:19:29.337Z,15.85
2022-12-20T01:24:31.090Z,13.80
2022-12-20T01:29:32.461Z,15.18
2022-12-20T01:34:33.841Z,14.27
2022-12-20T01:39:35.583Z,12.13
2022-12-20T01:44:42.928Z,13.68
2022-12-20T01:49:47.933Z,12.05
2022-12-20T01:54:58.121Z,13.23
2022-12-20T01:59:59.624Z,12.60
2022-12-20T02:05:01.119Z,12.00
2022-12-20T02:10:03.449Z,13.65
2022-12-20T02:15:07.692Z,13.63
2022-12-20T02:20:10.561Z,14.48
2022-12-20T02:25:27.073Z,14.38
2022-12-20T02:30:34.105Z,13.07
2022-12-20T02:35:36.771Z,12.45
2022-12-20T02:40:40.782Z,11.32
2022-12-20T02:45:42.269Z,14.75
2022-12-20T02:50:46.144Z,15.40
2022-12-20T02:55:56.411Z,12.60
2022-12-20T03:00:59.637Z,14.95
2022-12-20T03:06:01.127Z,12.73
2022-12-20T03:11:02.506Z,18.52
2022-12-20T03:16:04.376Z,12.35
2022-12-20T03:21:05.949Z,12.73
2022-12-20T03:26:07.308Z,11.90
2022-12-20T03:31:09.175Z,12.00
2022-12-20T03:36:10.609Z,13.35
2022-12-20T03:41:12.038Z,13.10
2022-12-20T03:46:13.455Z,11.65
2022-12-20T03:51:14.861Z,12.30
2022-12-20T03:56:16.263Z,14.50
2022-12-20T04:01:25.202Z,13.10
2022-12-20T04:06:26.718Z,13.47
2022-12-20T04:11:28.217Z,12.25
2022-12-20T04:16:30.292Z,11.90
2022-12-20T04:21:33.685Z,12.32
2022-12-20T04:26:35.194Z,9.90
2022-12-20T04:31:36.808Z,10.95
2022-12-20T04:36:38.253Z,11.55
2022-12-20T04:41:39.680Z,10.82
2022-12-20T04:46:41.078Z,11.25
2022-12-20T04:51:42.537Z,14.05
2022-12-20T04:56:43.945Z,10.98
2022-12-20T05:01:45.437Z,11.10
2022-12-20T05:06:46.945Z,12.65
2022-12-20T05:11:48.384Z,11.90
2022-12-20T05:16:49.770Z,14.63
2022-12-20T05:22:09.656Z,14.70
2022-12-20T05:27:11.022Z,12.70
2022-12-20T05:32:12.422Z,10.65
2022-12-20T05:37:14.501Z,14.55
2022-12-20T05:42:15.990Z,14.55
2022-12-20T05:47:17.377Z,15.07
2022-12-20T05:52:18.795Z,11.95
2022-12-20T05:57:20.184Z,14.80
2022-12-20T06:02:24.575Z,13.20
2022-12-20T06:07:30.068Z,12.63
2022-12-20T06:12:31.440Z,14.50
2022-12-20T06:17:32.816Z,14.30
2022-12-20T06:22:35.092Z,16.73
2022-12-20T06:27:36.827Z,15.20
2022-12-20T06:32:38.680Z,15.13
2022-12-20T06:37:40.620Z,13.25
2022-12-20T06:42:42.378Z,11.90
2022-12-20T06:47:43.788Z,17.23
2022-12-20T06:52:47.369Z,13.50
2022-12-20T06:57:48.845Z,14.40
2022-12-20T07:02:50.270Z,12.75
2022-12-20T07:07:51.760Z,13.95
2022-12-20T07:12:53.417Z,15.10
2022-12-20T07:17:54.852Z,12.75
2022-12-20T07:22:56.233Z,13.57
2022-12-20T07:27:57.762Z,16.27
2022-12-20T07:32:59.169Z,14.57
2022-12-20T07:38:00.652Z,11.52
2022-12-20T07:43:04.176Z,13.20
2022-12-20T07:48:12.354Z,11.35
2022-12-20T07:53:17.943Z,12.10
2022-12-20T07:58:19.965Z,11.73
2022-12-20T08:03:27.046Z,13.93
2022-12-20T08:08:28.575Z,11.65
2022-12-20T08:13:32.734Z,13.90
2022-12-20T08:18:34.134Z,13.52
2022-12-20T08:23:35.595Z,11.98
2022-12-20T08:28:37.632Z,10.65
2022-12-20T08:33:40.330Z,12.35
2022-12-20T08:38:41.927Z,11.27
2022-12-20T08:43:43.644Z,14.15
2022-12-20T08:48:45.135Z,10.95
2022-12-20T08:53:46.549Z,10.48
2022-12-20T08:58:48.209Z,11.43
2022-12-20T09:03:50.290Z,9.95
2022-12-20T09:08:52.146Z,15.02
2022-12-20T09:13:57.481Z,14.70
2022-12-20T09:19:05.443Z,13.43
2022-12-20T09:24:08.812Z,10.48
2022-12-20T09:29:10.302Z,12.63
2022-12-20T09:34:14.433Z,11.68
2022-12-20T09:39:15.834Z,10.57
2022-12-20T09:44:31.655Z,12.43
2022-12-20T09:49:36.250Z,12.98
2022-12-20T09:54:53.188Z,11.73
2022-12-20T09:59:56.977Z,11.70
2022-12-20T10:04:58.561Z,9.60
2022-12-20T10:10:18.783Z,12.32
2022-12-20T10:15:20.364Z,12.05
2022-12-20T10:20:24.807Z,12.73
2022-12-20T10:25:33.138Z,11.80
2022-12-20T10:30:35.575Z,13.98
2022-12-20T10:35:40.810Z,12.98
2022-12-20T10:46:07.992Z,13.68
2022-12-20T10:51:15.068Z,11.77
2022-12-20T10:56:23.582Z,22.93
2022-12-20T11:01:35.958Z,10.95
2022-12-20T11:06:37.504Z,11.52
2022-12-20T11:11:56.859Z,10.15
2022-12-20T11:17:00.038Z,11.80
2022-12-20T11:22:16.600Z,13.40
2022-12-20T11:27:30.248Z,13.13
2022-12-20T11:32:49.102Z,14.70
2022-12-20T11:38:10.181Z,14.35
2022-12-20T11:44:23.407Z,15.93
2022-12-20T11:49:33.724Z,19.95
2022-12-20T11:54:46.363Z,13.07
2022-12-20T11:59:51.126Z,13.05
2022-12-20T12:05:05.243Z,14.20
2022-12-20T12:10:27.345Z,16.45
2022-12-20T12:15:32.734Z,13.77
2022-12-20T12:20:49.669Z,13.68
2022-12-20T12:25:51.481Z,17.25
2022-12-20T12:30:58.929Z,15.60
2022-12-20T12:36:06.872Z,13.85
2022-12-20T12:41:26.671Z,15.82
2022-12-20T12:46:30.192Z,13.15
2022-12-20T12:51:36.257Z,14.57
2022-12-20T12:56:44.399Z,12.95
2022-12-20T13:01:48.007Z,15.80
2022-12-20T13:06:57.141Z,15.18
2022-12-20T13:12:02.393Z,17.53
2022-12-20T13:17:12.756Z,15.32
2022-12-20T13:22:22.723Z,15.98
2022-12-20T13:27:32.478Z,15.82
2022-12-20T13:32:54.725Z,15.48
2022-12-20T13:38:06.649Z,17.98
2022-12-20T13:43:20.369Z,18.17
2022-12-20T13:48:25.412Z,18.30
2022-12-20T13:53:28.005Z,16.90
2022-12-20T13:58:34.347Z,18.80
2022-12-20T14:03:41.054Z,23.17
2022-12-20T14:08:49.101Z,18.05
2022-12-20T14:14:02.146Z,19.30
2022-12-20T14:19:04.753Z,19.05
2022-12-20T14:24:09.678Z,19.35
2022-12-20T14:29:25.099Z,119.63
2022-12-20T14:34:30.111Z,362.40
2022-12-20T14:39:34.293Z,320.60
2022-12-20T14:44:37.379Z,23.52
2022-12-20T14:49:41.474Z,21.60
2022-12-20T14:55:11.132Z,23.95
2022-12-20T15:00:18.655Z,20.55
2022-12-20T15:05:31.980Z,27.67
2022-12-20T15:10:33.569Z,25.50
2022-12-20T15:15:35.349Z,24.10
2022-12-20T15:20:40.863Z,23.38
2022-12-20T15:25:44.791Z,22.30
2022-12-20T15:30:48.430Z,29.60
2022-12-20T15:35:49.998Z,25.13
2022-12-20T15:40:56.149Z,23.08
2022-12-20T15:45:57.625Z,24.50
2022-12-20T15:50:59.285Z,25.10
2022-12-20T15:56:00.755Z,29.02
2022-12-20T16:01:03.534Z,23.80
2022-12-20T16:06:05.020Z,25.48
2022-12-20T16:11:07.597Z,22.70
2022-12-20T16:16:14.013Z,23.30
2022-12-20T16:21:17.377Z,23.98
2022-12-20T16:26:20.242Z,23.73
2022-12-20T16:31:24.788Z,25.88
2022-12-20T16:36:26.351Z,26.48
2022-12-20T16:41:29.038Z,28.10
2022-12-20T16:46:31.452Z,26.95
2022-12-20T16:51:37.764Z,28.98
2022-12-20T16:56:39.192Z,28.23
2022-12-20T17:01:42.351Z,29.45
2022-12-20T17:06:44.537Z,30.90
2022-12-20T17:11:46.317Z,30.52
2022-12-20T17:16:47.893Z,32.25
2022-12-20T17:27:10.585Z,35.28
2022-12-20T17:32:27.525Z,32.67
2022-12-20T17:37:29.502Z,35.75
2022-12-20T17:42:31.859Z,34.58
2022-12-20T17:47:33.426Z,36.00
2022-12-20T17:52:34.956Z,37.22
2022-12-20T17:57:36.594Z,40.53
2022-12-20T18:02:38.993Z,36.08
2022-12-20T18:07:40.527Z,38.90
2022-12-20T18:12:41.972Z,37.17
2022-12-20T18:17:44.503Z,37.30
2022-12-20T18:22:46.427Z,39.42
2022-12-20T18:27:47.993Z,44.03
2022-12-20T18:32:49.438Z,38.20
2022-12-20T18:37:50.898Z,41.08
2022-12-20T18:42:53.087Z,40.55
2022-12-20T18:47:55.668Z,42.47
2022-12-20T18:53:01.347Z,43.03
2022-12-20T18:58:03.320Z,51.13
2022-12-20T19:03:04.879Z,48.42
2022-12-20T19:08:06.594Z,44.97
2022-12-20T19:13:08.056Z,50.70
2022-12-20T19:18:09.489Z,42.72
2022-12-20T19:23:13.607Z,48.40
2022-12-20T19:28:15.140Z,45.88
2022-12-20T19:33:16.579Z,49.25
2022-12-20T19:38:18.276Z,43.20
2022-12-20T19:43:20.206Z,40.17
2022-12-20T19:48:21.801Z,54.15
2022-12-20T19:53:23.610Z,40.30
2022-12-20T19:58:25.897Z,40.75
2022-12-20T20:03:27.765Z,41.58
2022-12-20T20:08:29.299Z,40.75
2022-12-20T20:13:31.241Z,40.90
2022-12-20T20:18:34.495Z,36.78
2022-12-20T20:23:36.843Z,32.60
2022-12-20T20:28:45.074Z,41.75
2022-12-20T20:33:47.148Z,41.58
2022-12-20T20:38:49.757Z,37.28
2022-12-20T20:43:51.338Z,36.92
2022-12-20T20:48:52.855Z,40.30
2022-12-20T20:53:54.359Z,38.53
2022-12-20T20:59:02.897Z,35.22
2022-12-20T21:04:07.622Z,39.90
2022-12-20T21:09:11.128Z,35.33
2022-12-20T21:14:12.858Z,33.92
2022-12-20T21:19:14.765Z,38.20
2022-12-20T21:24:16.352Z,40.08
2022-12-20T21:29:17.897Z,40.47
2022-12-20T21:34:19.481Z,39.92
2022-12-20T21:39:20.992Z,42.03
2022-12-20T21:44:22.557Z,41.08
2022-12-20T21:49:24.061Z,36.33
2022-12-20T21:54:25.701Z,36.63
2022-12-20T21:59:28.847Z,37.28
2022-12-20T22:04:31.695Z,36.33
2022-12-20T22:09:33.233Z,33.17
2022-12-20T22:14:34.731Z,32.95
2022-12-20T22:19:37.164Z,30.48
2022-12-20T22:24:39.470Z,29.40
2022-12-20T22:29:41.282Z,31.48
2022-12-20T22:34:42.762Z,31.05
2022-12-20T22:39:44.248Z,32.15
2022-12-20T22:44:45.885Z,26.15
2022-12-20T22:49:47.492Z,25.67
2022-12-20T22:54:48.955Z,27.77
2022-12-20T22:59:50.633Z,27.05
2022-12-20T23:04:52.630Z,28.77
2022-12-20T23:09:54.096Z,29.88
2022-12-20T23:15:13.964Z,27.60
2022-12-20T23:20:34.118Z,25.05
2022-12-20T23:25:35.830Z,23.58
2022-12-20T23:30:37.337Z,21.50
2022-12-20T23:35:39.843Z,19.77
2022-12-20T23:40:41.372Z,23.20
2022-12-20T23:45:42.814Z,22.63
2022-12-20T23:50:44.269Z,20.35
2022-12-20T23:55:55.791Z,19.83
